createdAt,value
2017-12-10T00:02:04.821Z,15.73
2017-12-10T00:04:30.824Z,19.00
2017-12-10T00:06:56.788Z,16.10
2017-12-10T00:09:23.556Z,19.17
2017-12-10T00:11:50.248Z,19.92
2017-12-10T00:14:16.945Z,15.50
2017-12-10T00:16:43.168Z,17.27
2017-12-10T00:19:09.157Z,24.45
2017-12-10T00:21:35.132Z,17.83
2017-12-10T00:24:01.154Z,16.70
2017-12-10T00:26:27.104Z,15.38
2017-12-10T00:28:53.092Z,14.73
2017-12-10T00:31:19.068Z,16.10
2017-12-10T00:33:45.042Z,16.43
2017-12-10T00:36:11.773Z,17.90
2017-12-10T00:38:37.768Z,17.67
2017-12-10T00:41:03.746Z,18.40
2017-12-10T00:43:29.697Z,19.65
2017-12-10T00:45:55.711Z,19.57
2017-12-10T00:48:21.680Z,18.17
2017-12-10T00:50:48.402Z,22.98
2017-12-10T00:53:14.740Z,24.20
2017-12-10T00:55:40.712Z,23.50
2017-12-10T00:58:06.727Z,21.40
2017-12-10T01:00:32.712Z,20.60
2017-12-10T01:02:59.423Z,19.17
2017-12-10T01:05:25.396Z,18.15
2017-12-10T01:07:51.358Z,19.37
2017-12-10T01:10:17.352Z,18.60
2017-12-10T01:12:43.326Z,22.42
2017-12-10T01:15:09.291Z,17.98
2017-12-10T01:17:35.260Z,22.10
2017-12-10T01:20:01.456Z,19.85
2017-12-10T01:22:27.435Z,21.12
2017-12-10T01:24:53.381Z,24.00
2017-12-10T01:27:19.489Z,21.35
2017-12-10T01:29:45.460Z,18.30
2017-12-10T01:32:11.436Z,19.40
2017-12-10T01:34:37.408Z,21.80
2017-12-10T01:37:03.403Z,23.55
2017-12-10T01:39:29.392Z,19.63
2017-12-10T01:41:55.367Z,20.25
2017-12-10T01:44:22.106Z,22.35
2017-12-10T01:46:48.096Z,21.80
2017-12-10T01:49:14.376Z,23.05
2017-12-10T01:51:41.092Z,23.30
2017-12-10T01:54:07.069Z,31.58
2017-12-10T01:56:33.073Z,23.98
2017-12-10T01:58:59.049Z,18.67
2017-12-10T02:01:25.022Z,21.80
2017-12-10T02:03:50.991Z,23.63
2017-12-10T02:06:16.952Z,21.30
2017-12-10T02:08:42.992Z,27.60
2017-12-10T02:11:09.056Z,24.30
2017-12-10T02:13:35.020Z,19.55
2017-12-10T02:16:01.361Z,20.15
2017-12-10T02:18:27.362Z,22.33
2017-12-10T02:20:53.327Z,18.17
2017-12-10T02:23:19.296Z,22.02
2017-12-10T02:25:45.269Z,19.15
2017-12-10T02:28:11.220Z,20.63
2017-12-10T02:30:37.959Z,22.15
2017-12-10T02:33:04.684Z,21.27
2017-12-10T02:35:30.649Z,18.50
2017-12-10T02:37:56.876Z,20.37
2017-12-10T02:40:22.865Z,22.87
2017-12-10T02:42:49.573Z,18.67
2017-12-10T02:45:15.926Z,20.47
2017-12-10T02:47:42.645Z,20.73
2017-12-10T02:50:08.643Z,17.75
2017-12-10T02:52:34.812Z,21.98
2017-12-10T02:55:00.786Z,21.48
2017-12-10T02:57:26.771Z,16.55
2017-12-10T02:59:52.759Z,19.53
2017-12-10T03:02:18.753Z,19.15
2017-12-10T03:04:44.720Z,20.10
2017-12-10T03:07:11.444Z,18.87
2017-12-10T03:09:37.417Z,17.63
2017-12-10T03:12:03.428Z,19.87
2017-12-10T03:14:29.400Z,19.75
2017-12-10T03:16:55.353Z,18.60
2017-12-10T03:19:21.320Z,19.67
2017-12-10T03:21:47.300Z,19.37
2017-12-10T03:24:13.256Z,19.10
2017-12-10T03:26:39.516Z,22.27
2017-12-10T03:29:06.232Z,20.23
2017-12-10T03:31:32.222Z,17.35
2017-12-10T03:33:58.241Z,21.45
2017-12-10T03:36:24.228Z,17.10
2017-12-10T03:38:50.962Z,18.62
2017-12-10T03:41:17.717Z,17.13
2017-12-10T03:43:43.689Z,18.58
2017-12-10T03:46:09.689Z,19.93
2017-12-10T03:48:35.692Z,18.15
2017-12-10T03:51:01.671Z,17.90
2017-12-10T03:53:27.657Z,15.10
2017-12-10T03:55:53.673Z,19.70
2017-12-10T03:58:19.645Z,21.02
2017-12-10T04:00:46.348Z,17.30
2017-12-10T04:03:12.502Z,19.25
2017-12-10T04:05:39.232Z,16.60
2017-12-10T04:08:05.204Z,17.77
2017-12-10T04:10:31.209Z,20.70
2017-12-10T04:12:57.512Z,19.62
2017-12-10T04:15:24.228Z,16.73
2017-12-10T04:17:50.200Z,17.43
2017-12-10T04:20:16.484Z,17.35
2017-12-10T04:22:42.448Z,18.33
2017-12-10T04:25:08.426Z,17.95
2017-12-10T04:27:35.208Z,18.60
2017-12-10T04:30:01.185Z,19.50
2017-12-10T04:32:27.892Z,15.02
2017-12-10T04:34:53.921Z,17.45
2017-12-10T04:37:19.933Z,14.43
2017-12-10T04:39:45.896Z,16.85
2017-12-10T04:42:11.928Z,17.60
2017-12-10T04:44:37.881Z,14.65
2017-12-10T04:47:03.854Z,18.80
2017-12-10T04:49:29.872Z,18.80
2017-12-10T04:51:57.352Z,14.83
2017-12-10T04:54:23.327Z,18.10
2017-12-10T04:56:49.670Z,17.02
2017-12-10T04:59:15.624Z,16.52
2017-12-10T05:01:41.602Z,17.37
2017-12-10T05:04:07.589Z,16.87
2017-12-10T05:06:33.601Z,16.50
2017-12-10T05:08:59.600Z,16.12
2017-12-10T05:11:25.584Z,19.62
2017-12-10T05:13:53.051Z,16.10
2017-12-10T05:16:19.768Z,15.40
2017-12-10T05:18:45.748Z,17.20
2017-12-10T05:21:11.729Z,16.17
2017-12-10T05:23:38.437Z,14.68
2017-12-10T05:26:04.410Z,19.73
2017-12-10T05:28:30.367Z,16.62
2017-12-10T05:30:56.363Z,15.07
2017-12-10T05:33:22.510Z,17.30
2017-12-10T05:35:48.475Z,15.38
2017-12-10T05:38:15.204Z,16.87
2017-12-10T05:40:41.931Z,15.45
2017-12-10T05:43:07.912Z,16.25
2017-12-10T05:45:33.929Z,16.40
2017-12-10T05:47:59.957Z,17.07
2017-12-10T05:50:26.028Z,16.33
2017-12-10T05:52:52.007Z,16.70
2017-12-10T05:55:17.976Z,13.23
2017-12-10T05:57:44.742Z,15.70
2017-12-10T06:00:10.745Z,14.90
2017-12-10T06:02:36.692Z,15.77
2017-12-10T06:05:03.076Z,19.60
2017-12-10T06:07:29.808Z,15.82
2017-12-10T06:09:55.780Z,17.87
2017-12-10T06:12:22.882Z,14.43
2017-12-10T06:14:49.592Z,16.05
2017-12-10T06:17:15.562Z,15.10
2017-12-10T06:19:41.579Z,15.80
2017-12-10T06:22:07.544Z,18.75
2017-12-10T06:24:33.520Z,15.95
2017-12-10T06:27:01.172Z,15.50
2017-12-10T06:29:27.872Z,16.05
2017-12-10T06:31:53.870Z,16.37
2017-12-10T06:34:19.856Z,12.98
2017-12-10T06:36:45.814Z,17.07
2017-12-10T06:39:11.789Z,13.35
2017-12-10T06:41:38.509Z,15.18
2017-12-10T06:44:04.487Z,13.15
2017-12-10T06:46:30.475Z,13.43
2017-12-10T06:48:57.175Z,14.80
2017-12-10T06:51:23.148Z,16.70
2017-12-10T06:53:49.453Z,18.17
2017-12-10T06:56:16.188Z,16.47
2017-12-10T06:58:42.901Z,17.48
2017-12-10T07:01:08.894Z,17.37
2017-12-10T07:03:34.876Z,17.58
2017-12-10T07:06:00.873Z,16.70
2017-12-10T07:08:26.833Z,15.18
2017-12-10T07:10:52.848Z,16.05
2017-12-10T07:13:18.841Z,16.83
2017-12-10T07:15:45.804Z,16.85
2017-12-10T07:18:11.789Z,15.25
2017-12-10T07:20:37.752Z,13.50
2017-12-10T07:23:04.048Z,15.88
2017-12-10T07:25:30.028Z,16.75
2017-12-10T07:27:55.989Z,14.77
2017-12-10T07:30:21.989Z,17.33
2017-12-10T07:32:47.944Z,13.93
2017-12-10T07:35:14.671Z,16.37
2017-12-10T07:37:41.404Z,14.87
2017-12-10T07:40:07.356Z,13.88
2017-12-10T07:42:33.312Z,15.68
2017-12-10T07:44:59.405Z,14.97
2017-12-10T07:47:25.370Z,14.90
2017-12-10T07:49:51.344Z,15.70
2017-12-10T07:52:17.341Z,14.73
2017-12-10T07:54:44.087Z,15.93
2017-12-10T07:57:10.765Z,14.53
2017-12-10T07:59:36.737Z,16.45
2017-12-10T08:02:03.431Z,16.03
2017-12-10T08:04:29.416Z,16.55
2017-12-10T08:06:55.383Z,20.80
2017-12-10T08:09:21.398Z,17.30
2017-12-10T08:11:47.370Z,15.85
2017-12-10T08:14:13.678Z,17.87
2017-12-10T08:16:40.400Z,17.65
2017-12-10T08:19:06.365Z,16.37
2017-12-10T08:21:32.371Z,17.37
2017-12-10T08:23:58.341Z,16.98
2017-12-10T08:26:24.312Z,16.87
2017-12-10T08:28:50.288Z,17.40
2017-12-10T08:31:16.292Z,14.60
2017-12-10T08:33:42.280Z,18.62
2017-12-10T08:36:08.287Z,15.60
2017-12-10T08:38:35.012Z,16.80
2017-12-10T08:41:01.717Z,16.77
2017-12-10T08:43:27.964Z,18.17
2017-12-10T08:45:53.934Z,15.63
2017-12-10T08:48:19.892Z,16.90
2017-12-10T08:50:45.861Z,14.87
2017-12-10T08:53:11.812Z,16.40
2017-12-10T08:55:37.800Z,16.12
2017-12-10T08:58:03.776Z,15.70
2017-12-10T09:00:29.756Z,17.13
2017-12-10T09:02:55.724Z,15.82
2017-12-10T09:05:21.684Z,17.65
2017-12-10T09:07:47.638Z,15.75
2017-12-10T09:10:13.623Z,16.85
2017-12-10T09:12:39.576Z,14.10
2017-12-10T09:15:05.576Z,14.75
2017-12-10T09:17:31.520Z,13.57
2017-12-10T09:20:04.548Z,13.83
2017-12-10T09:22:31.285Z,12.73
2017-12-10T09:24:57.993Z,15.40
2017-12-10T09:27:23.945Z,14.57
2017-12-10T09:29:50.768Z,11.47
2017-12-10T09:32:16.724Z,12.13
2017-12-10T09:34:42.678Z,10.90
2017-12-10T09:37:08.692Z,12.73
2017-12-10T09:39:34.669Z,11.10
2017-12-10T09:42:01.364Z,12.23
2017-12-10T09:44:27.533Z,11.35
2017-12-10T09:46:54.240Z,9.98
2017-12-10T09:49:20.210Z,9.85
2017-12-10T09:51:46.337Z,8.50
2017-12-10T09:54:12.305Z,9.07
2017-12-10T09:56:38.264Z,10.07
2017-12-10T09:59:04.353Z,10.32
2017-12-10T10:01:30.343Z,8.23
2017-12-10T10:03:56.313Z,8.07
2017-12-10T10:06:23.041Z,8.43
2017-12-10T10:08:49.757Z,8.23
2017-12-10T10:11:15.724Z,8.87
2017-12-10T10:13:41.895Z,8.10
2017-12-10T10:16:08.481Z,7.18
2017-12-10T10:18:34.464Z,8.88
2017-12-10T10:21:00.426Z,8.25
2017-12-10T10:23:26.429Z,7.40
2017-12-10T10:25:53.144Z,8.00
2017-12-10T10:28:19.865Z,9.40
2017-12-10T10:30:46.417Z,6.80
2017-12-10T10:33:12.377Z,5.05
2017-12-10T10:35:38.344Z,6.82
2017-12-10T10:38:04.329Z,7.50
2017-12-10T10:40:30.512Z,6.00
2017-12-10T10:42:57.219Z,8.73
2017-12-10T10:45:23.246Z,7.15
2017-12-10T10:47:49.493Z,6.55
2017-12-10T10:50:15.452Z,7.40
2017-12-10T10:52:41.437Z,6.40
2017-12-10T10:55:08.160Z,6.67
2017-12-10T10:57:34.159Z,7.10
2017-12-10T11:00:00.120Z,6.00
2017-12-10T11:02:26.886Z,6.90
2017-12-10T11:04:52.845Z,6.17
2017-12-10T11:07:18.828Z,9.85
2017-12-10T11:09:44.828Z,6.28
2017-12-10T11:12:11.541Z,6.82
2017-12-10T11:14:37.532Z,7.45
2017-12-10T11:17:03.546Z,8.07
2017-12-10T11:19:29.495Z,7.82
2017-12-10T11:21:56.944Z,7.70
2017-12-10T11:24:23.296Z,7.17
2017-12-10T11:26:49.260Z,6.90
2017-12-10T11:29:15.220Z,6.95
2017-12-10T11:31:41.998Z,9.20
2017-12-10T11:34:08.448Z,7.28
2017-12-10T11:36:34.424Z,6.93
2017-12-10T11:39:00.575Z,6.40
2017-12-10T11:41:26.558Z,7.00
2017-12-10T11:43:52.556Z,6.30
2017-12-10T11:46:18.524Z,5.50
2017-12-10T11:48:45.257Z,5.37
2017-12-10T11:51:11.968Z,6.68
2017-12-10T11:53:37.947Z,5.60
2017-12-10T11:56:03.908Z,9.77
2017-12-10T11:58:29.870Z,6.20
2017-12-10T12:00:56.068Z,7.05
2017-12-10T12:03:22.029Z,10.27
2017-12-10T12:05:48.013Z,6.33
2017-12-10T12:08:14.784Z,6.00
2017-12-10T12:10:40.773Z,6.13
2017-12-10T12:13:07.504Z,7.68
2017-12-10T12:15:33.469Z,7.57
2017-12-10T12:17:59.769Z,6.55
2017-12-10T12:20:26.482Z,6.68
2017-12-10T12:22:52.440Z,8.57
2017-12-10T12:25:18.732Z,6.60
2017-12-10T12:27:44.744Z,5.72
2017-12-10T12:30:10.700Z,6.80
2017-12-10T12:32:37.550Z,6.82
2017-12-10T12:35:03.521Z,7.70
2017-12-10T12:37:29.504Z,9.07
2017-12-10T12:39:55.501Z,5.90
2017-12-10T12:42:22.213Z,6.93
2017-12-10T12:44:49.973Z,9.02
2017-12-10T12:47:15.965Z,8.60
2017-12-10T12:49:41.948Z,9.63
2017-12-10T12:52:07.907Z,9.43
2017-12-10T12:54:34.057Z,8.30
2017-12-10T12:57:00.033Z,9.55
2017-12-10T12:59:26.053Z,6.50
2017-12-10T13:01:52.012Z,7.10
2017-12-10T13:04:18.000Z,6.82
2017-12-10T13:06:43.969Z,7.23
2017-12-10T13:09:10.112Z,8.10
2017-12-10T13:11:36.818Z,10.07
2017-12-10T13:14:02.793Z,7.75
2017-12-10T13:16:28.789Z,9.02
2017-12-10T13:18:55.494Z,9.10
2017-12-10T13:21:22.250Z,8.43
2017-12-10T13:23:48.977Z,11.55
2017-12-10T13:26:15.016Z,8.90
2017-12-10T13:28:41.815Z,11.43
2017-12-10T13:31:07.762Z,10.05
2017-12-10T13:33:34.470Z,8.48
2017-12-10T13:36:00.437Z,26.80
2017-12-10T13:38:27.474Z,15.95
2017-12-10T13:40:54.186Z,14.05
2017-12-10T13:43:20.145Z,11.75
2017-12-10T13:45:46.886Z,10.07
2017-12-10T13:48:12.857Z,11.43
2017-12-10T13:50:38.833Z,9.68
2017-12-10T13:53:04.805Z,10.17
2017-12-10T13:55:30.788Z,9.80
2017-12-10T13:57:56.745Z,9.35
2017-12-10T14:00:22.700Z,10.75
2017-12-10T14:02:49.441Z,7.80
2017-12-10T14:05:16.136Z,9.00
2017-12-10T14:07:42.096Z,10.20
2017-12-10T14:10:08.847Z,8.85
2017-12-10T14:12:34.805Z,11.27
2017-12-10T14:15:00.773Z,8.90
2017-12-10T14:17:27.629Z,10.48
2017-12-10T14:19:53.588Z,10.73
2017-12-10T14:22:19.564Z,10.32
2017-12-10T14:24:45.861Z,10.30
2017-12-10T14:27:11.861Z,11.60
2017-12-10T14:29:37.844Z,10.60
2017-12-10T14:32:03.826Z,8.23
2017-12-10T14:34:30.552Z,10.38
2017-12-10T14:36:57.261Z,8.23
2017-12-10T14:39:23.233Z,8.05
2017-12-10T14:41:49.940Z,9.47
2017-12-10T14:44:15.916Z,7.57
2017-12-10T14:46:41.889Z,8.70
2017-12-10T14:49:07.852Z,7.70
2017-12-10T14:51:33.830Z,9.77
2017-12-10T14:53:59.821Z,8.65
2017-12-10T14:56:25.802Z,10.30
2017-12-10T14:58:51.745Z,10.05
2017-12-10T15:01:17.918Z,8.15
2017-12-10T15:03:43.894Z,9.18
2017-12-10T15:06:09.852Z,12.73
2017-12-10T15:08:36.206Z,9.90
2017-12-10T15:11:02.925Z,9.25
2017-12-10T15:13:28.872Z,9.53
2017-12-10T15:15:54.872Z,8.48
2017-12-10T15:18:21.622Z,8.23
2017-12-10T15:20:48.333Z,10.57
2017-12-10T15:23:14.320Z,6.90
2017-12-10T15:25:40.294Z,7.82
2017-12-10T15:28:07.029Z,6.95
2017-12-10T15:30:33.772Z,8.07
2017-12-10T15:33:00.501Z,9.73
2017-12-10T15:35:26.472Z,9.07
2017-12-10T15:37:52.460Z,8.97
2017-12-10T15:40:19.168Z,9.77
2017-12-10T15:42:45.301Z,7.97
2017-12-10T15:45:11.259Z,9.00
2017-12-10T15:47:37.229Z,11.73
2017-12-10T15:50:03.208Z,9.45
2017-12-10T15:52:29.182Z,8.07
2017-12-10T15:54:55.126Z,9.30
2017-12-10T15:57:21.216Z,6.72
2017-12-10T15:59:47.177Z,8.02
2017-12-10T16:02:13.162Z,10.38
2017-12-10T16:04:39.140Z,9.45
2017-12-10T16:07:05.115Z,8.10
2017-12-10T16:09:31.838Z,10.07
2017-12-10T16:11:57.808Z,12.57
2017-12-10T16:14:23.818Z,8.75
2017-12-10T16:16:49.785Z,9.38
2017-12-10T16:19:16.024Z,9.80
2017-12-10T16:21:41.981Z,8.75
2017-12-10T16:24:07.958Z,6.05
2017-12-10T16:26:34.030Z,44.13
2017-12-10T16:29:00.241Z,22.87
2017-12-10T16:31:26.208Z,7.37
2017-12-10T16:33:52.211Z,7.70
2017-12-10T16:36:18.176Z,8.73
2017-12-10T16:38:44.156Z,5.10
2017-12-10T16:41:10.424Z,9.98
2017-12-10T16:43:36.408Z,8.32
2017-12-10T16:46:02.398Z,7.55
2017-12-10T16:48:28.704Z,11.17
2017-12-10T16:50:55.420Z,9.80
2017-12-10T16:53:21.393Z,9.10
2017-12-10T16:55:47.385Z,9.20
2017-12-10T16:58:14.131Z,7.60
2017-12-10T17:00:40.890Z,7.77
2017-12-10T17:03:07.914Z,7.50
2017-12-10T17:05:33.866Z,10.73
2017-12-10T17:07:59.844Z,8.30
2017-12-10T17:10:26.572Z,7.85
2017-12-10T17:12:52.553Z,8.77
2017-12-10T17:15:18.525Z,7.05
2017-12-10T17:17:45.451Z,8.38
2017-12-10T17:20:11.413Z,10.07
2017-12-10T17:22:37.416Z,8.00
2017-12-10T17:25:04.139Z,9.35
2017-12-10T17:27:30.844Z,7.10
2017-12-10T17:29:56.824Z,7.95
2017-12-10T17:32:22.784Z,8.73
2017-12-10T17:34:48.780Z,9.10
2017-12-10T17:37:14.919Z,6.00
2017-12-10T17:39:40.876Z,5.85
2017-12-10T17:42:06.856Z,6.87
2017-12-10T17:44:32.849Z,10.77
2017-12-10T17:46:58.833Z,9.48
2017-12-10T17:49:24.780Z,7.37
2017-12-10T17:51:50.805Z,9.73
2017-12-10T17:54:16.773Z,6.70
2017-12-10T17:56:42.736Z,11.35
2017-12-10T17:59:08.957Z,8.30
2017-12-10T18:01:35.661Z,7.53
2017-12-10T18:04:01.645Z,5.90
2017-12-10T18:06:27.632Z,7.62
2017-12-10T18:08:54.325Z,7.50
2017-12-10T18:11:20.313Z,8.90
2017-12-10T18:13:46.288Z,8.68
2017-12-10T18:16:12.260Z,6.55
2017-12-10T18:18:38.232Z,9.95
2017-12-10T18:21:04.220Z,6.95
2017-12-10T18:23:30.196Z,5.68
2017-12-10T18:25:56.924Z,6.70
2017-12-10T18:28:23.627Z,8.43
2017-12-10T18:30:49.811Z,6.70
2017-12-10T18:33:15.795Z,6.83
2017-12-10T18:35:41.761Z,6.50
2017-12-10T18:38:07.708Z,5.95
2017-12-10T18:40:33.964Z,6.00
2017-12-10T18:43:00.678Z,6.43
2017-12-10T18:45:26.632Z,4.90
2017-12-10T18:47:53.565Z,4.60
2017-12-10T18:50:19.520Z,3.95
2017-12-10T18:52:45.499Z,7.30
2017-12-10T18:55:11.521Z,5.90
2017-12-10T18:57:37.492Z,3.55
2017-12-10T19:00:03.484Z,4.00
2017-12-10T19:02:29.507Z,4.05
2017-12-10T19:04:56.216Z,5.03
2017-12-10T19:07:22.192Z,3.80
2017-12-10T19:09:48.203Z,4.87
2017-12-10T19:12:14.178Z,4.22
2017-12-10T19:14:40.193Z,4.95
2017-12-10T19:17:06.177Z,5.43
2017-12-10T19:19:32.193Z,5.45
2017-12-10T19:21:58.193Z,4.00
2017-12-10T19:24:24.897Z,4.28
2017-12-10T19:26:50.889Z,5.25
2017-12-10T19:29:16.882Z,4.55
2017-12-10T19:31:42.935Z,5.05
2017-12-10T19:34:08.903Z,4.43
2017-12-10T19:36:35.621Z,7.00
2017-12-10T19:39:01.600Z,4.73
2017-12-10T19:41:27.584Z,4.05
2017-12-10T19:43:54.381Z,3.90
2017-12-10T19:46:20.537Z,4.53
2017-12-10T19:48:46.521Z,4.25
2017-12-10T19:51:12.523Z,3.58
2017-12-10T19:53:38.500Z,4.22
2017-12-10T19:56:05.208Z,4.80
2017-12-10T19:58:31.646Z,5.50
2017-12-10T20:00:57.676Z,4.32
2017-12-10T20:03:23.649Z,3.85
2017-12-10T20:05:49.693Z,3.70
2017-12-10T20:08:15.656Z,4.62
2017-12-10T20:10:42.372Z,4.07
2017-12-10T20:13:08.683Z,3.53
2017-12-10T20:15:34.653Z,4.47
2017-12-10T20:18:01.377Z,4.22
2017-12-10T20:20:27.531Z,5.55
2017-12-10T20:22:53.516Z,4.03
2017-12-10T20:25:19.533Z,4.27
2017-12-10T20:27:45.519Z,6.82
2017-12-10T20:30:11.510Z,4.05
2017-12-10T20:32:38.205Z,5.22
2017-12-10T20:35:04.481Z,5.07
2017-12-10T20:37:30.434Z,5.20
2017-12-10T20:39:56.388Z,4.93
2017-12-10T20:42:23.137Z,4.68
2017-12-10T20:44:51.168Z,7.40
2017-12-10T20:47:17.276Z,5.35
2017-12-10T20:49:43.278Z,4.50
2017-12-10T20:52:10.466Z,5.78
2017-12-10T20:54:36.441Z,5.30
2017-12-10T20:57:02.444Z,4.22
2017-12-10T20:59:29.182Z,5.03
2017-12-10T21:01:55.894Z,7.20
2017-12-10T21:04:22.236Z,7.30
2017-12-10T21:06:48.232Z,6.47
2017-12-10T21:09:14.189Z,4.45
2017-12-10T21:11:41.054Z,5.30
2017-12-10T21:14:07.050Z,5.87
2017-12-10T21:16:33.024Z,4.77
2017-12-10T21:18:59.078Z,4.85
2017-12-10T21:21:25.057Z,4.40
2017-12-10T21:23:51.042Z,7.03
2017-12-10T21:26:17.818Z,7.53
2017-12-10T21:28:43.805Z,5.37
2017-12-10T21:31:10.538Z,5.05
2017-12-10T21:33:36.512Z,5.23
2017-12-10T21:36:02.720Z,4.32
2017-12-10T21:38:28.701Z,4.97
2017-12-10T21:40:54.689Z,4.00
2017-12-10T21:43:20.651Z,4.53
2017-12-10T21:45:46.722Z,4.50
2017-12-10T21:48:13.413Z,5.43
2017-12-10T21:50:39.368Z,5.00
2017-12-10T21:53:05.386Z,6.40
2017-12-10T21:55:31.361Z,4.37
2017-12-10T21:57:57.357Z,5.55
2017-12-10T22:00:23.720Z,5.77
2017-12-10T22:02:49.716Z,4.45
2017-12-10T22:05:15.687Z,5.60
2017-12-10T22:07:42.605Z,5.68
2017-12-10T22:10:08.659Z,6.75
2017-12-10T22:12:34.632Z,4.70
2017-12-10T22:15:00.603Z,4.73
2017-12-10T22:17:26.580Z,5.15
2017-12-10T22:19:52.542Z,6.93
2017-12-10T22:22:18.584Z,5.50
2017-12-10T22:24:44.550Z,5.07
2017-12-10T22:27:10.533Z,5.70
2017-12-10T22:29:36.812Z,5.43
2017-12-10T22:32:05.862Z,4.62
2017-12-10T22:34:31.867Z,4.10
2017-12-10T22:36:58.132Z,4.87
2017-12-10T22:39:24.125Z,4.50
2017-12-10T22:41:50.088Z,4.40
2017-12-10T22:44:16.173Z,4.95
2017-12-10T22:46:42.136Z,4.00
2017-12-10T22:49:08.859Z,6.25
2017-12-10T22:51:34.996Z,4.33
2017-12-10T22:54:01.712Z,4.05
2017-12-10T22:56:27.681Z,4.00
2017-12-10T22:58:53.656Z,5.25
2017-12-10T23:01:19.647Z,4.10
2017-12-10T23:03:52.882Z,4.80
2017-12-10T23:06:18.852Z,4.55
2017-12-10T23:08:44.895Z,5.30
2017-12-10T23:11:10.890Z,4.27
2017-12-10T23:13:49.034Z,5.35
2017-12-10T23:16:27.505Z,3.87
2017-12-10T23:18:53.471Z,4.37
2017-12-10T23:21:19.480Z,3.73
2017-12-10T23:23:45.812Z,4.30
2017-12-10T23:26:11.790Z,3.87
2017-12-10T23:28:37.772Z,4.90
2017-12-10T23:31:03.815Z,3.85
2017-12-10T23:33:30.569Z,4.55
2017-12-10T23:35:57.294Z,4.20
2017-12-10T23:38:24.020Z,4.68
2017-12-10T23:40:50.013Z,4.70
2017-12-10T23:43:15.981Z,4.37
2017-12-10T23:45:42.235Z,4.43
2017-12-10T23:48:08.212Z,4.30
2017-12-10T23:50:34.920Z,4.40
2017-12-10T23:53:00.971Z,4.97
2017-12-10T23:55:26.938Z,4.80
2017-12-10T23:57:52.903Z,5.20
